createdAt,value
2023-02-04T06:49:26.253Z,3.80
2023-02-04T06:51:53.093Z,5.30
2023-02-04T06:54:19.847Z,3.33
2023-02-04T06:56:46.899Z,3.53
2023-02-04T06:59:13.715Z,3.92
2023-02-04T07:01:40.513Z,5.50
2023-02-04T07:04:07.376Z,4.60
2023-02-04T07:06:34.171Z,5.13
2023-02-04T07:09:00.959Z,5.88
2023-02-04T07:11:27.728Z,6.65
2023-02-04T07:13:54.988Z,7.72
2023-02-04T07:16:21.680Z,5.22
2023-02-04T07:18:48.465Z,11.98
2023-02-04T07:21:15.522Z,7.53
2023-02-04T07:23:42.550Z,7.40
2023-02-04T07:26:09.193Z,7.20
2023-02-04T07:28:37.007Z,11.75
2023-02-04T07:31:03.866Z,14.82
2023-02-04T07:33:30.827Z,10.32
2023-02-04T07:35:57.513Z,13.70
2023-02-04T07:38:25.144Z,17.23
2023-02-04T07:40:51.908Z,12.23
2023-02-04T07:43:18.968Z,12.23
2023-02-04T07:45:45.907Z,11.18
2023-02-04T07:48:12.693Z,12.82
2023-02-04T07:50:39.606Z,12.65
2023-02-04T07:53:06.368Z,10.20
2023-02-04T07:55:33.281Z,12.90
2023-02-04T07:58:00.032Z,13.18
2023-02-04T08:00:26.800Z,13.02
2023-02-04T08:02:53.553Z,10.65
2023-02-04T08:05:20.416Z,9.13
2023-02-04T08:07:47.155Z,11.45
2023-02-04T08:10:14.008Z,11.93
2023-02-04T08:12:40.729Z,10.73
2023-02-04T08:15:08.945Z,9.98
2023-02-04T08:17:36.256Z,10.25
2023-02-04T08:28:50.760Z,8.52
2023-02-04T08:31:17.681Z,9.85
2023-02-04T08:33:44.430Z,10.30
2023-02-04T08:36:11.277Z,7.30
2023-02-04T08:38:37.957Z,14.90
2023-02-04T08:41:04.933Z,20.55
2023-02-04T08:43:31.712Z,13.20
2023-02-04T08:45:59.454Z,13.13
2023-02-04T08:48:26.371Z,15.23
2023-02-04T08:50:53.145Z,14.85
2023-02-04T08:53:19.899Z,12.95
2023-02-04T08:55:46.700Z,17.50
2023-02-04T08:58:13.435Z,16.58
2023-02-04T09:00:40.218Z,26.55
2023-02-04T09:03:07.018Z,28.05
2023-02-04T09:05:33.973Z,20.63
2023-02-04T09:08:00.656Z,17.05
2023-02-04T09:10:27.347Z,22.45
2023-02-04T09:12:56.221Z,20.90
2023-02-04T09:15:26.807Z,18.35
2023-02-04T09:20:31.891Z,19.95
2023-02-04T09:22:58.827Z,20.17
2023-02-04T09:25:25.680Z,24.77
2023-02-04T09:27:52.407Z,20.60
2023-02-04T09:30:19.384Z,24.50
2023-02-04T09:32:46.125Z,21.35
2023-02-04T09:35:12.921Z,19.65
2023-02-04T09:37:39.628Z,16.00
2023-02-04T09:40:06.881Z,25.95
2023-02-04T09:42:33.513Z,31.60
2023-02-04T09:45:03.124Z,28.83
2023-02-04T09:47:30.061Z,20.20
2023-02-04T09:49:56.838Z,24.95
2023-02-04T09:52:24.739Z,31.27
2023-02-04T09:54:51.935Z,26.38
2023-02-04T09:57:20.104Z,19.13
2023-02-04T09:59:47.207Z,19.13
2023-02-04T10:02:22.209Z,18.35
2023-02-04T10:04:50.913Z,23.55
2023-02-04T10:07:22.251Z,20.30
2023-02-04T10:09:50.253Z,25.65
2023-02-04T10:12:17.044Z,21.35
2023-02-04T10:14:44.439Z,21.10
2023-02-04T10:17:11.832Z,14.02
2023-02-04T10:19:38.732Z,14.25
2023-02-04T10:22:13.601Z,16.30
2023-02-04T10:24:40.485Z,24.30
2023-02-04T10:27:11.886Z,23.48
2023-02-04T10:29:40.357Z,15.10
2023-02-04T10:32:26.377Z,6.63
2023-02-04T10:34:58.578Z,4.10
2023-02-04T10:37:25.488Z,2.80
2023-02-04T10:39:52.647Z,2.15
2023-02-04T10:42:28.076Z,4.97
2023-02-04T10:44:55.149Z,3.40
2023-02-04T10:47:23.989Z,4.43
2023-02-04T10:50:02.912Z,3.08
2023-02-04T10:52:40.010Z,2.67
2023-02-04T10:55:11.481Z,2.20
2023-02-04T10:57:39.241Z,1.40
2023-02-04T11:00:18.616Z,2.05
2023-02-04T11:03:04.420Z,2.30
2023-02-04T11:05:34.683Z,0.55
2023-02-04T11:08:02.910Z,1.88
2023-02-04T11:10:34.716Z,2.80
2023-02-04T11:13:04.383Z,3.53
2023-02-04T11:15:50.566Z,2.17
2023-02-04T11:18:21.118Z,3.13
2023-02-04T11:20:49.255Z,2.90
2023-02-04T11:23:32.337Z,3.97
2023-02-04T11:26:07.571Z,3.65
2023-02-04T11:29:00.737Z,1.40
2023-02-04T11:31:27.679Z,2.25
2023-02-04T11:34:16.650Z,2.03
2023-02-04T11:37:01.822Z,2.58
2023-02-04T11:39:33.396Z,3.65
2023-02-04T11:42:00.835Z,2.28
2023-02-04T11:44:28.108Z,1.08
2023-02-04T11:46:56.112Z,1.42
2023-02-04T11:49:24.316Z,2.22
2023-02-04T11:51:51.213Z,1.42
2023-02-04T11:54:21.951Z,1.20
2023-02-04T11:56:53.032Z,2.90
2023-02-04T11:59:21.494Z,1.88
2023-02-04T12:01:48.189Z,1.38
2023-02-04T12:04:23.737Z,1.00
2023-02-04T12:06:59.094Z,2.20
2023-02-04T12:09:30.014Z,1.85
2023-02-04T12:11:57.793Z,3.10
2023-02-04T12:14:37.236Z,2.13
2023-02-04T12:17:20.324Z,2.40
2023-02-04T12:19:47.361Z,3.22
2023-02-04T12:22:15.671Z,1.15
2023-02-04T12:24:44.043Z,1.55
2023-02-04T12:27:10.845Z,2.05
2023-02-04T12:29:37.597Z,1.85
2023-02-04T12:32:04.722Z,2.05
2023-02-04T12:34:31.720Z,1.60
2023-02-04T12:36:58.664Z,4.70
2023-02-04T12:39:25.778Z,2.15
2023-02-04T12:41:52.428Z,2.47
2023-02-04T12:44:19.191Z,5.95
2023-02-04T12:46:46.054Z,4.80
2023-02-04T12:49:13.012Z,2.90
2023-02-04T12:51:39.700Z,2.55
2023-02-04T12:54:08.092Z,3.78
2023-02-04T12:56:35.221Z,2.92
2023-02-04T12:59:02.067Z,3.88
2023-02-04T13:01:28.885Z,3.22
2023-02-04T13:03:55.683Z,5.85
2023-02-04T13:06:24.923Z,3.10
2023-02-04T13:08:51.848Z,3.28
2023-02-04T13:11:18.556Z,2.78
2023-02-04T13:13:45.413Z,2.35
2023-02-04T13:16:12.794Z,2.78
2023-02-04T13:18:39.591Z,3.00
2023-02-04T13:21:06.251Z,2.78
2023-02-04T13:23:32.967Z,2.70
2023-02-04T13:25:59.603Z,3.85
2023-02-04T13:28:26.389Z,3.05
2023-02-04T13:30:53.223Z,3.83
2023-02-04T13:33:19.960Z,3.08
2023-02-04T13:35:46.695Z,5.10
2023-02-04T13:38:13.384Z,5.10
2023-02-04T13:40:40.052Z,2.03
2023-02-04T13:43:06.901Z,3.30
2023-02-04T13:45:34.052Z,5.03
2023-02-04T13:48:01.184Z,4.90
2023-02-04T13:50:27.872Z,10.85
2023-02-04T13:52:55.438Z,4.18
2023-02-04T13:55:22.234Z,4.13
2023-02-04T13:57:48.972Z,3.05
2023-02-04T14:00:16.207Z,3.58
2023-02-04T14:02:43.036Z,1.88
2023-02-04T14:05:09.830Z,3.20
2023-02-04T14:07:36.632Z,4.53
2023-02-04T14:10:03.664Z,4.80
2023-02-04T14:12:30.478Z,3.85
2023-02-04T14:14:57.177Z,7.13
2023-02-04T14:17:24.269Z,5.20
2023-02-04T14:19:51.161Z,3.97
2023-02-04T14:22:18.449Z,3.15
2023-02-04T14:24:45.103Z,2.45
2023-02-04T14:27:11.902Z,3.65
2023-02-04T14:29:38.696Z,3.10
2023-02-04T14:32:06.144Z,7.55
2023-02-04T14:34:32.890Z,4.60
2023-02-04T14:36:59.781Z,4.35
2023-02-04T14:39:26.476Z,4.45
2023-02-04T14:41:53.252Z,5.38
2023-02-04T14:44:20.995Z,5.88
2023-02-04T14:46:49.076Z,4.97
2023-02-04T14:49:16.478Z,2.85
2023-02-04T14:51:43.460Z,5.20
2023-02-04T14:54:10.352Z,2.85
2023-02-04T14:56:37.215Z,5.97
2023-02-04T14:59:04.056Z,6.18
2023-02-04T15:01:31.114Z,4.90
2023-02-04T15:03:58.374Z,2.67
2023-02-04T15:06:25.312Z,4.22
2023-02-04T15:08:52.496Z,6.95
2023-02-04T15:11:19.192Z,2.85
2023-02-04T15:13:46.090Z,5.22
2023-02-04T15:16:14.426Z,9.48
2023-02-04T15:18:41.787Z,3.67
2023-02-04T15:21:08.508Z,3.15
2023-02-04T15:23:35.383Z,4.20
2023-02-04T15:26:02.376Z,4.50
2023-02-04T15:28:31.036Z,4.18
2023-02-04T15:30:58.325Z,4.68
2023-02-04T15:33:25.274Z,7.25
2023-02-04T15:35:52.074Z,3.38
2023-02-04T15:38:18.734Z,3.50
2023-02-04T15:40:45.503Z,3.92
2023-02-04T15:43:12.188Z,4.97
2023-02-04T15:45:41.453Z,3.88
2023-02-04T15:48:08.497Z,10.02
2023-02-04T15:50:35.505Z,8.68
2023-02-04T15:53:02.386Z,6.22
2023-02-04T15:55:29.499Z,5.53
2023-02-04T15:57:56.248Z,6.30
2023-02-04T16:00:23.115Z,6.32
2023-02-04T16:02:49.816Z,4.88
2023-02-04T16:05:16.971Z,6.93
2023-02-04T16:07:43.710Z,3.30
2023-02-04T16:10:11.184Z,8.85
2023-02-04T16:12:37.915Z,6.72
2023-02-04T16:15:04.861Z,3.60
2023-02-04T16:17:31.850Z,11.65
2023-02-04T16:19:58.601Z,5.82
2023-02-04T16:22:25.316Z,8.27
2023-02-04T16:24:52.981Z,7.07
2023-02-04T16:27:20.104Z,5.68
2023-02-04T16:29:47.338Z,5.53
2023-02-04T16:32:14.776Z,5.72
2023-02-04T16:34:41.868Z,2.97
2023-02-04T16:37:08.515Z,4.82
2023-02-04T16:39:36.903Z,6.28
2023-02-04T16:42:06.396Z,5.88
2023-02-04T16:44:33.144Z,10.75
2023-02-04T16:46:59.801Z,7.47
2023-02-04T16:49:26.508Z,4.18
2023-02-04T16:51:53.126Z,5.10
2023-02-04T16:54:19.899Z,5.55
2023-02-04T16:56:46.579Z,7.15
2023-02-04T16:59:13.401Z,4.30
2023-02-04T17:01:40.113Z,8.80
2023-02-04T17:04:06.936Z,5.72
2023-02-04T17:06:34.092Z,11.85
2023-02-04T17:09:01.222Z,0.20
2023-02-04T17:11:31.746Z,0.28
2023-02-04T17:14:03.970Z,0.00
2023-02-04T17:16:31.529Z,0.00
2023-02-04T17:21:42.385Z,0.35
2023-02-04T17:24:11.292Z,0.00
2023-02-04T17:26:39.642Z,0.00
2023-02-04T17:29:11.892Z,0.00
2023-02-04T17:31:39.635Z,0.00
2023-02-04T17:34:06.567Z,0.00
2023-02-04T17:36:33.484Z,0.10
2023-02-04T17:39:00.503Z,0.03
2023-02-04T17:41:27.257Z,0.10
2023-02-04T17:43:54.008Z,0.00
2023-02-04T17:46:20.942Z,0.00
2023-02-04T17:48:47.713Z,0.30
2023-02-04T17:51:14.588Z,0.10
2023-02-04T17:53:41.478Z,0.00
2023-02-04T17:56:12.616Z,0.10
2023-02-04T17:58:39.928Z,0.00
2023-02-04T18:01:12.126Z,0.05
2023-02-04T18:03:39.442Z,0.22
2023-02-04T18:06:18.331Z,0.00
2023-02-04T18:08:45.121Z,0.00
2023-02-04T18:11:24.371Z,0.00
2023-02-04T18:13:54.685Z,0.35
2023-02-04T18:16:39.354Z,0.00
2023-02-04T18:19:21.043Z,0.00
2023-02-04T18:21:54.744Z,0.35
2023-02-04T18:24:30.537Z,3.03
2023-02-04T18:27:00.562Z,0.40
2023-02-04T18:29:27.418Z,0.00
2023-02-04T18:31:57.409Z,0.10
2023-02-04T18:34:36.256Z,0.20
2023-02-04T18:37:28.163Z,0.00
2023-02-04T18:39:57.727Z,0.10
2023-02-04T18:42:26.539Z,0.05
2023-02-04T18:44:55.119Z,0.57
2023-02-04T18:47:31.802Z,0.10
2023-02-04T18:50:16.200Z,0.00
2023-02-04T18:52:43.706Z,0.00
2023-02-04T18:55:34.898Z,0.47
2023-02-04T18:58:17.397Z,0.00
2023-02-04T19:00:48.696Z,0.10
2023-02-04T19:03:27.059Z,0.10
2023-02-04T19:05:55.862Z,0.10
2023-02-04T19:08:25.268Z,3.50
2023-02-04T19:10:54.056Z,0.00
2023-02-04T19:13:31.180Z,0.20
2023-02-04T19:16:02.963Z,0.00
2023-02-04T19:18:32.849Z,0.00
2023-02-04T19:21:17.960Z,0.10
2023-02-04T19:23:44.832Z,0.28
2023-02-04T19:26:29.420Z,0.00
2023-02-04T19:28:56.553Z,0.10
2023-02-04T19:31:27.080Z,0.00
2023-02-04T19:33:55.430Z,0.80
2023-02-04T19:36:36.960Z,0.00
2023-02-04T19:39:14.185Z,0.25
2023-02-04T19:41:43.532Z,0.00
2023-02-04T19:44:13.747Z,0.00
2023-02-04T19:46:42.279Z,0.20
2023-02-04T19:49:29.404Z,0.35
2023-02-04T19:51:57.874Z,0.00
2023-02-04T19:54:38.559Z,0.00
2023-02-04T19:59:56.675Z,0.00
2023-02-04T20:02:35.765Z,0.10
2023-02-04T20:05:14.049Z,0.00
2023-02-04T20:07:40.804Z,0.00
2023-02-04T20:10:07.554Z,0.38
2023-02-04T20:12:34.428Z,0.00
2023-02-04T20:15:03.676Z,0.47
2023-02-04T20:17:36.835Z,0.47
2023-02-04T20:20:18.598Z,0.00
2023-02-04T20:22:50.860Z,0.40
2023-02-04T20:25:23.528Z,0.00
2023-02-04T20:28:06.203Z,0.00
2023-02-04T20:30:34.800Z,5.68
2023-02-04T20:33:28.603Z,0.60
2023-02-04T20:36:22.380Z,0.47
2023-02-04T20:38:50.130Z,0.03
2023-02-04T20:41:20.775Z,1.55
2023-02-04T20:43:51.749Z,0.75
2023-02-04T20:46:25.221Z,0.17
2023-02-04T20:48:53.267Z,3.50
2023-02-04T20:51:24.453Z,0.30
2023-02-04T20:53:52.788Z,0.52
2023-02-04T20:56:25.678Z,0.30
2023-02-04T20:58:58.201Z,0.35
2023-02-04T21:01:36.531Z,0.10
2023-02-04T21:04:31.132Z,0.00
2023-02-04T21:07:01.268Z,0.00
2023-02-04T21:09:30.466Z,0.80
2023-02-04T21:11:57.876Z,0.38
2023-02-04T21:14:26.183Z,0.38
2023-02-04T21:16:54.676Z,1.38
2023-02-04T21:19:22.680Z,0.20
2023-02-04T21:21:49.505Z,0.68
2023-02-04T21:24:16.369Z,0.30
2023-02-04T21:26:43.117Z,0.10
2023-02-04T21:29:11.321Z,0.95
2023-02-04T21:31:38.590Z,0.15
2023-02-04T21:34:06.030Z,0.10
2023-02-04T21:36:32.852Z,1.13
2023-02-04T21:38:59.727Z,10.77
2023-02-04T21:41:26.537Z,0.20
2023-02-04T21:43:53.875Z,1.10
2023-02-04T21:46:20.855Z,0.15
2023-02-04T21:48:47.784Z,6.65
2023-02-04T21:51:14.881Z,3.33
2023-02-04T21:53:41.966Z,0.35
2023-02-04T21:56:09.482Z,0.20
2023-02-04T21:58:36.503Z,0.10
2023-02-04T22:01:03.249Z,0.70
2023-02-04T22:03:29.991Z,0.68
2023-02-04T22:05:56.774Z,0.00
2023-02-04T22:08:24.023Z,0.73
2023-02-04T22:10:50.862Z,0.25
2023-02-04T22:13:17.559Z,0.00
2023-02-04T22:15:44.368Z,0.10
2023-02-04T22:18:12.098Z,0.00
2023-02-04T22:20:39.625Z,0.00
2023-02-04T22:23:06.613Z,0.80
2023-02-04T22:25:33.738Z,0.10
2023-02-04T22:28:00.632Z,0.00
2023-02-04T22:30:27.533Z,0.00
2023-02-04T22:32:55.866Z,0.03
2023-02-04T22:35:23.223Z,0.35
2023-02-04T22:37:49.970Z,0.10
2023-02-04T22:40:17.018Z,0.00
2023-02-04T22:42:43.695Z,1.50
2023-02-04T22:45:10.537Z,6.18
2023-02-04T22:47:37.284Z,2.75
2023-02-04T22:50:04.108Z,1.48
2023-02-04T22:52:30.936Z,10.65
2023-02-04T22:54:57.734Z,2.05
2023-02-04T22:57:24.421Z,1.15
2023-02-04T22:59:51.166Z,0.40
2023-02-04T23:02:17.945Z,1.00
2023-02-04T23:04:44.873Z,1.08
2023-02-04T23:07:12.444Z,0.80
2023-02-04T23:09:39.191Z,0.32
2023-02-04T23:12:15.058Z,0.90
2023-02-04T23:14:43.992Z,5.32
2023-02-04T23:17:11.144Z,0.73
2023-02-04T23:19:38.109Z,1.10
2023-02-04T23:22:05.498Z,0.55
2023-02-04T23:24:32.903Z,0.77
2023-02-04T23:27:00.277Z,0.30
2023-02-04T23:29:28.575Z,2.97
2023-02-04T23:31:55.954Z,0.22
2023-02-04T23:34:22.711Z,1.23
2023-02-04T23:36:51.213Z,0.63
2023-02-04T23:39:19.126Z,7.30
2023-02-04T23:41:45.931Z,0.65
2023-02-04T23:44:12.845Z,0.10
2023-02-04T23:46:39.680Z,0.57
2023-02-04T23:49:06.759Z,0.75
2023-02-04T23:51:33.605Z,0.10
2023-02-04T23:54:00.592Z,0.20
2023-02-04T23:56:27.500Z,0.82
2023-02-04T23:58:55.409Z,0.50
